Time;durP1;ratioP1;P1;durP2;ratioP2;P2;SDS_P1;SDS_P2;PMS_P1;PMS_P2;Temp;Humidity;BMP_temperature;BMP_pressure;BME280_temperature;BME280_humidity;BME280_pressure;Samples;Min_cycle;Max_cycle;Signal;HPM_P1;HPM_P2
2021/09/24 00:00:07;;;;;;;25.80;8.15;;;;;16.40;100929.00;;;;4835585;29;20072;-80
2021/09/24 00:02:41;;;;;;;24.65;7.63;;;;;16.30;100911.00;;;;4851841;29;20069;-79
2021/09/24 00:05:11;;;;;;;13.65;5.93;;;;;16.20;100919.00;;;;4854426;29;20042;-80
2021/09/24 00:07:40;;;;;;;25.67;7.65;;;;;16.20;100918.00;;;;4835015;29;20145;-78
2021/09/24 00:10:11;;;;;;;9.30;4.75;;;;;16.10;100937.00;;;;4853924;29;20045;-79
2021/09/24 00:12:41;;;;;;;22.70;6.93;;;;;16.10;100936.00;;;;4852750;29;20466;-80
2021/09/24 00:15:15;;;;;;;18.35;6.57;;;;;16.00;100913.00;;;;4853658;29;20060;-79
2021/09/24 00:17:46;;;;;;;22.27;6.63;;;;;16.00;100905.00;;;;4824159;29;20046;-80
2021/09/24 00:20:16;;;;;;;24.73;8.07;;;;;16.00;100907.00;;;;4824460;29;20050;-79
2021/09/24 00:22:46;;;;;;;35.03;9.40;;;;;15.90;100922.00;;;;4825807;29;20126;-79
2021/09/24 00:25:15;;;;;;;30.90;8.40;;;;;15.90;100922.00;;;;4826437;29;20064;-79
2021/09/24 00:27:45;;;;;;;33.47;9.27;;;;;15.90;100932.00;;;;4825387;29;20053;-79
2021/09/24 00:30:15;;;;;;;37.45;9.07;;;;;15.90;100921.00;;;;4830394;29;20049;-79
2021/09/24 00:32:44;;;;;;;34.17;9.77;;;;;15.90;100908.00;;;;4835995;29;20095;-78
2021/09/24 00:35:13;;;;;;;30.80;8.95;;;;;15.90;100904.00;;;;4834812;29;20120;-80
2021/09/24 00:37:43;;;;;;;37.20;10.00;;;;;15.90;100920.00;;;;4834700;29;20064;-79
2021/09/24 00:40:13;;;;;;;30.85;9.77;;;;;15.90;100880.00;;;;4833338;29;20516;-79
2021/09/24 00:42:43;;;;;;;27.20;8.40;;;;;15.80;100893.00;;;;4834757;29;20046;-79
2021/09/24 00:45:12;;;;;;;32.67;10.38;;;;;15.90;100928.00;;;;4835757;29;20054;-79
2021/09/24 00:47:42;;;;;;;31.05;10.18;;;;;15.90;100915.00;;;;4833453;29;20046;-80
2021/09/24 00:50:11;;;;;;;33.70;11.00;;;;;15.90;100929.00;;;;4834183;29;20057;-80
2021/09/24 00:52:41;;;;;;;34.53;12.60;;;;;15.90;100934.00;;;;4848304;29;20089;-79
2021/09/24 00:55:11;;;;;;;34.13;11.60;;;;;15.90;100924.00;;;;4835358;29;20054;-80
2021/09/24 00:57:40;;;;;;;40.83;11.60;;;;;15.90;100935.00;;;;4837696;29;20060;-80
2021/09/24 01:00:10;;;;;;;32.58;12.15;;;;;15.90;100916.00;;;;4851367;29;20728;-79
2021/09/24 01:02:40;;;;;;;339.27;262.60;;;;;15.80;100925.00;;;;4852721;29;20169;-79
2021/09/24 01:05:10;;;;;;;962.55;191.65;;;;;15.80;100916.00;;;;4853098;29;20446;-79
2021/09/24 01:07:43;;;;;;;19.48;7.70;;;;;15.80;100922.00;;;;4851761;29;20046;-80
2021/09/24 01:10:15;;;;;;;20.85;7.50;;;;;15.80;100934.00;;;;4853591;29;20042;-79
2021/09/24 01:12:44;;;;;;;29.83;9.20;;;;;15.80;100946.00;;;;4853416;29;20071;-80
2021/09/24 01:15:17;;;;;;;36.85;11.13;;;;;15.80;100933.00;;;;4852371;29;20071;-79
2021/09/24 01:17:48;;;;;;;39.10;15.20;;;;;15.70;100945.00;;;;4851512;29;20049;-79
2021/09/24 01:20:20;;;;;;;38.15;13.43;;;;;15.70;100958.00;;;;4852559;29;20095;-79
2021/09/24 01:22:51;;;;;;;35.53;11.07;;;;;15.70;100945.00;;;;4853069;29;20048;-80
2021/09/24 01:25:23;;;;;;;44.13;14.35;;;;;15.60;100948.00;;;;4853260;29;20046;-80
2021/09/24 01:27:53;;;;;;;32.22;12.70;;;;;15.60;100954.00;;;;4850149;29;20527;-79
2021/09/24 01:30:23;;;;;;;76.00;68.47;;;;;15.60;100946.00;;;;4855033;29;20102;-80
2021/09/24 01:32:53;;;;;;;34.08;10.65;;;;;15.60;100938.00;;;;4856989;29;20128;-80
2021/09/24 01:35:22;;;;;;;40.30;14.07;;;;;15.60;100927.00;;;;4839386;29;20060;-79
2021/09/24 01:37:52;;;;;;;44.15;20.48;;;;;15.50;100932.00;;;;4855706;29;20247;-80
2021/09/24 01:40:22;;;;;;;1.35;0.82;;;;;15.40;100916.00;;;;4856466;29;20049;-81
2021/09/24 01:42:53;;;;;;;25.63;10.95;;;;;15.50;100915.00;;;;4856978;29;20766;-80
2021/09/24 01:45:23;;;;;;;44.58;13.63;;;;;15.50;100923.00;;;;4856864;29;20072;-80
2021/09/24 01:47:52;;;;;;;28.50;8.90;;;;;15.40;100933.00;;;;4841546;29;20049;-82
2021/09/24 01:50:22;;;;;;;10.57;4.57;;;;;15.40;100936.00;;;;4856681;29;20046;-79
2021/09/24 01:52:51;;;;;;;39.67;11.88;;;;;15.40;100932.00;;;;4856528;29;20057;-80
2021/09/24 01:55:21;;;;;;;43.15;14.18;;;;;15.40;100934.00;;;;4856602;29;20041;-80
2021/09/24 01:57:51;;;;;;;48.65;15.18;;;;;15.40;100931.00;;;;4839991;29;20501;-79
2021/09/24 02:00:21;;;;;;;50.90;26.92;;;;;15.30;100937.00;;;;4856614;29;20054;-80
2021/09/24 02:02:50;;;;;;;43.72;12.45;;;;;15.30;100924.00;;;;4856415;29;20063;-81
2021/09/24 02:05:20;;;;;;;59.72;15.38;;;;;15.30;100923.00;;;;4857019;29;20607;-80
2021/09/24 02:07:49;;;;;;;62.28;16.23;;;;;15.30;100924.00;;;;4857326;29;20053;-80
2021/09/24 02:10:19;;;;;;;43.72;15.70;;;;;15.40;100930.00;;;;4858309;29;20511;-80
2021/09/24 02:12:48;;;;;;;48.00;16.38;;;;;15.50;100912.00;;;;4856210;29;20733;-80
2021/09/24 02:15:18;;;;;;;48.03;16.63;;;;;15.50;100910.00;;;;4856679;29;20128;-81
2021/09/24 02:17:47;;;;;;;40.70;16.25;;;;;15.50;100882.00;;;;4855995;29;20042;-80
2021/09/24 02:20:16;;;;;;;33.03;14.77;;;;;15.40;100889.00;;;;4855896;29;21012;-79
2021/09/24 02:22:46;;;;;;;34.65;14.95;;;;;15.40;100886.00;;;;4856417;29;20157;-80
2021/09/24 02:25:15;;;;;;;47.72;16.98;;;;;15.40;100885.00;;;;4856619;29;20056;-81
2021/09/24 02:27:45;;;;;;;45.03;17.98;;;;;15.40;100895.00;;;;4855848;29;20057;-80
2021/09/24 02:30:14;;;;;;;36.88;15.73;;;;;15.40;100887.00;;;;4840730;29;20053;-80
2021/09/24 02:32:44;;;;;;;43.92;19.75;;;;;15.40;100882.00;;;;4855496;29;20061;-80
2021/09/24 02:35:13;;;;;;;48.92;19.13;;;;;15.40;100897.00;;;;4856620;29;20509;-80
2021/09/24 02:37:42;;;;;;;40.42;18.23;;;;;15.40;100906.00;;;;4856201;29;20052;-80
2021/09/24 02:40:12;;;;;;;41.70;19.10;;;;;15.50;100909.00;;;;4839030;29;20053;-80
2021/09/24 02:42:42;;;;;;;51.40;19.42;;;;;15.50;100903.00;;;;4857164;29;20045;-80
2021/09/24 02:45:11;;;;;;;45.08;18.52;;;;;15.50;100898.00;;;;4855071;29;20072;-79
2021/09/24 02:47:40;;;;;;;52.25;19.40;;;;;15.50;100883.00;;;;4857001;29;20049;-79
2021/09/24 02:50:11;;;;;;;41.00;19.90;;;;;15.40;100897.00;;;;4856118;29;20053;-78
2021/09/24 02:52:40;;;;;;;33.08;16.80;;;;;15.40;100895.00;;;;4854230;29;20773;-78
2021/09/24 02:55:10;;;;;;;34.70;17.58;;;;;15.40;100902.00;;;;4857407;29;20041;-80
2021/09/24 02:57:41;;;;;;;32.08;17.98;;;;;15.40;100897.00;;;;4856197;29;20061;-79
2021/09/24 03:00:11;;;;;;;51.17;17.88;;;;;15.40;100894.00;;;;4854708;29;20041;-79
2021/09/24 03:02:40;;;;;;;42.90;16.95;;;;;15.40;100899.00;;;;4855284;29;20076;-79
2021/09/24 03:05:11;;;;;;;42.45;17.77;;;;;15.50;100873.00;;;;4855507;29;20061;-80
2021/09/24 03:07:41;;;;;;;152.50;107.70;;;;;15.40;100870.00;;;;4855381;29;20432;-80
2021/09/24 03:10:12;;;;;;;47.85;13.68;;;;;15.40;100886.00;;;;4854809;29;20061;-80
2021/09/24 03:12:41;;;;;;;30.42;12.73;;;;;15.40;100888.00;;;;4854479;29;20046;-79
2021/09/24 03:15:12;;;;;;;46.35;13.13;;;;;15.40;100882.00;;;;4854847;29;20432;-80
2021/09/24 03:17:42;;;;;;;;;;;;;15.40;100898.00;;;;4838542;29;20067;-80
2021/09/24 03:20:12;;;;;;;46.38;17.77;;;;;15.40;100903.00;;;;4854093;29;20304;-81
2021/09/24 03:22:42;;;;;;;56.08;19.08;;;;;15.40;100905.00;;;;4838208;29;20509;-80
2021/09/24 03:25:13;;;;;;;48.25;19.13;;;;;15.40;100892.00;;;;4855159;29;20053;-80
2021/09/24 03:27:42;;;;;;;44.75;17.20;;;;;15.40;100892.00;;;;4854401;29;20049;-81
2021/09/24 03:30:12;;;;;;;58.90;17.00;;;;;15.40;100894.00;;;;4854744;29;20097;-81
2021/09/24 03:32:42;;;;;;;42.97;19.27;;;;;15.40;100899.00;;;;4853988;29;20053;-80
2021/09/24 03:35:13;;;;;;;55.25;18.15;;;;;15.40;100897.00;;;;4837685;29;20060;-81
2021/09/24 03:37:43;;;;;;;75.60;22.17;;;;;15.40;100883.00;;;;4838387;29;20061;-81
2021/09/24 03:40:13;;;;;;;54.13;20.13;;;;;15.40;100890.00;;;;4853996;29;20042;-80
2021/09/24 03:42:43;;;;;;;44.00;18.33;;;;;15.40;100899.00;;;;4838276;29;20053;-81
2021/09/24 03:45:12;;;;;;;67.10;19.55;;;;;15.40;100891.00;;;;4837741;29;20428;-80
2021/09/24 03:47:41;;;;;;;36.90;14.75;;;;;15.40;100895.00;;;;4852481;29;20045;-80
2021/09/24 03:50:11;;;;;;;47.40;19.40;;;;;15.40;100875.00;;;;4838218;29;20053;-80
2021/09/24 03:52:41;;;;;;;44.72;19.05;;;;;15.40;100893.00;;;;4854824;29;20509;-80
2021/09/24 03:55:11;;;;;;;45.75;16.50;;;;;15.40;100881.00;;;;4838024;29;20057;-81
2021/09/24 03:57:45;;;;;;;33.20;12.82;;;;;15.40;100876.00;;;;4854054;29;20061;-80
2021/09/24 04:00:16;;;;;;;51.10;18.92;;;;;15.40;100893.00;;;;4851744;29;20620;-80
2021/09/24 04:02:45;;;;;;;59.95;17.38;;;;;15.40;100866.00;;;;4837984;29;20057;-80
2021/09/24 04:05:15;;;;;;;61.50;17.95;;;;;15.30;100864.00;;;;4854777;29;20053;-80
2021/09/24 04:07:44;;;;;;;52.55;16.13;;;;;15.30;100869.00;;;;4837174;29;20045;-81
2021/09/24 04:10:14;;;;;;;83.88;19.77;;;;;15.30;100862.00;;;;4854078;29;20083;-80
2021/09/24 04:12:44;;;;;;;54.85;18.10;;;;;15.40;100870.00;;;;4852390;29;20042;-80
2021/09/24 04:15:14;;;;;;;63.33;19.47;;;;;15.40;100851.00;;;;4836095;29;20433;-81
2021/09/24 04:17:44;;;;;;;50.30;18.27;;;;;15.40;100847.00;;;;4853475;29;20294;-81
2021/09/24 04:20:14;;;;;;;50.58;18.38;;;;;15.30;100857.00;;;;4853527;29;20077;-80
2021/09/24 04:22:43;;;;;;;37.17;16.38;;;;;15.30;100846.00;;;;4853554;29;20402;-80
2021/09/24 04:25:13;;;;;;;47.92;18.13;;;;;15.30;100827.00;;;;4853252;29;20432;-80
2021/09/24 04:27:43;;;;;;;59.13;19.20;;;;;15.30;100846.00;;;;4852828;29;20505;-80
2021/09/24 04:30:13;;;;;;;54.60;18.27;;;;;15.40;100857.00;;;;4853253;29;20049;-81
2021/09/24 04:32:43;;;;;;;52.55;18.35;;;;;15.30;100832.00;;;;4854199;29;20061;-80
2021/09/24 04:35:12;;;;;;;45.42;17.80;;;;;15.40;100846.00;;;;4854401;29;20045;-80
2021/09/24 04:37:41;;;;;;;58.92;19.08;;;;;15.30;100851.00;;;;4836916;29;20058;-80
2021/09/24 04:40:12;;;;;;;80.00;20.50;;;;;15.40;100852.00;;;;4853825;29;20525;-81
2021/09/24 04:42:41;;;;;;;40.67;18.35;;;;;15.40;100851.00;;;;4837296;29;20140;-80
2021/09/24 04:45:13;;;;;;;47.63;16.83;;;;;15.30;100827.00;;;;4853550;29;20041;-80
2021/09/24 04:47:43;;;;;;;55.75;17.42;;;;;15.30;100820.00;;;;4853725;29;20068;-79
2021/09/24 04:50:13;;;;;;;47.90;16.52;;;;;15.40;100812.00;;;;4854023;29;20098;-81
2021/09/24 04:52:43;;;;;;;41.50;17.00;;;;;15.30;100801.00;;;;4853609;29;20052;-80
2021/09/24 04:55:12;;;;;;;37.67;16.50;;;;;15.40;100818.00;;;;4853582;29;20106;-80
2021/09/24 04:57:42;;;;;;;33.45;16.67;;;;;15.30;100808.00;;;;4855097;29;20049;-80
2021/09/24 05:00:13;;;;;;;41.83;15.65;;;;;15.40;100829.00;;;;4856777;29;20049;-80
2021/09/24 05:02:43;;;;;;;53.90;18.67;;;;;15.40;100813.00;;;;4836477;29;20065;-80
2021/09/24 05:05:13;;;;;;;38.83;17.65;;;;;15.50;100811.00;;;;4855486;29;20050;-80
2021/09/24 05:07:42;;;;;;;46.72;17.92;;;;;15.50;100805.00;;;;4856498;29;20596;-81
2021/09/24 05:10:12;;;;;;;38.40;16.75;;;;;15.60;100780.00;;;;4840376;29;20065;-79
2021/09/24 05:12:44;;;;;;;73.25;23.67;;;;;15.50;100797.00;;;;4840806;29;20053;-80
2021/09/24 05:15:14;;;;;;;73.22;22.58;;;;;15.50;100802.00;;;;4855800;29;20544;-80
2021/09/24 05:17:43;;;;;;;50.83;19.20;;;;;15.50;100791.00;;;;4856741;29;20523;-80
2021/09/24 05:20:13;;;;;;;30.25;14.60;;;;;15.40;100799.00;;;;4856376;29;20046;-81
2021/09/24 05:22:42;;;;;;;56.33;15.93;;;;;15.40;100794.00;;;;4839318;29;20101;-80
2021/09/24 05:25:13;;;;;;;51.00;15.63;;;;;15.30;100795.00;;;;4856819;29;20045;-79
2021/09/24 05:27:42;;;;;;;53.28;20.55;;;;;15.40;100798.00;;;;4856539;29;20838;-79
2021/09/24 05:30:12;;;;;;;72.43;21.73;;;;;15.40;100791.00;;;;4857894;29;20057;-80
2021/09/24 05:32:41;;;;;;;42.10;16.83;;;;;15.40;100777.00;;;;4858377;29;20101;-80
2021/09/24 05:35:12;;;;;;;35.65;17.23;;;;;15.40;100768.00;;;;4857305;29;20101;-80
2021/09/24 05:37:43;;;;;;;48.63;21.75;;;;;15.40;100778.00;;;;4857541;29;20504;-81
2021/09/24 05:40:13;;;;;;;24.83;10.98;;;;;15.40;100776.00;;;;4854525;29;20050;-80
2021/09/24 05:42:43;;;;;;;20.55;10.15;;;;;15.50;100746.00;;;;4854785;29;20053;-79
2021/09/24 05:45:14;;;;;;;17.73;10.15;;;;;15.50;100750.00;;;;4837371;29;20088;-80
2021/09/24 05:47:44;;;;;;;30.38;12.38;;;;;15.50;100758.00;;;;4854395;29;20053;-80
2021/09/24 05:50:15;;;;;;;35.47;17.17;;;;;15.50;100765.00;;;;4854621;29;20057;-79
2021/09/24 05:52:47;;;;;;;41.40;18.90;;;;;15.50;100774.00;;;;4855943;29;20042;-81
2021/09/24 05:55:19;;;;;;;22.25;12.23;;;;;15.40;100747.00;;;;4855015;29;20037;-81
2021/09/24 05:57:51;;;;;;;26.40;10.93;;;;;15.40;100751.00;;;;4853960;29;20114;-79
2021/09/24 06:00:21;;;;;;;;;;;;;15.40;100760.00;;;;4855145;29;20646;-79
2021/09/24 06:02:51;;;;;;;23.52;11.50;;;;;15.50;100743.00;;;;4853231;29;19931;-81
2021/09/24 06:05:21;;;;;;;61.67;17.48;;;;;15.40;100748.00;;;;4838145;29;20469;-80
2021/09/24 06:07:50;;;;;;;82.38;19.95;;;;;15.40;100745.00;;;;4856454;29;20049;-80
2021/09/24 06:10:24;;;;;;;60.35;19.05;;;;;15.40;100740.00;;;;4838608;29;20054;-80
2021/09/24 06:12:53;;;;;;;67.35;20.70;;;;;15.40;100747.00;;;;4856145;29;20534;-80
2021/09/24 06:15:25;;;;;;;83.50;23.90;;;;;15.40;100729.00;;;;4839117;29;20669;-80
2021/09/24 06:17:54;;;;;;;77.35;22.75;;;;;15.40;100746.00;;;;4856058;29;20514;-80
2021/09/24 06:20:24;;;;;;;61.03;24.98;;;;;15.40;100745.00;;;;4855861;29;20061;-80
2021/09/24 06:22:54;;;;;;;24.00;12.23;;;;;15.40;100727.00;;;;4854202;29;20049;-80
2021/09/24 06:25:24;;;;;;;32.10;16.88;;;;;15.40;100730.00;;;;4853569;29;20064;-80
2021/09/24 06:27:53;;;;;;;32.83;17.77;;;;;15.40;100725.00;;;;4854387;29;20137;-80
2021/09/24 06:30:24;;;;;;;38.13;19.55;;;;;15.30;100742.00;;;;4854144;29;20626;-79
2021/09/24 06:32:54;;;;;;;;;;;;;15.40;100731.00;;;;4854086;29;20052;-80
2021/09/24 06:35:23;;;;;;;39.60;21.85;;;;;15.40;100717.00;;;;4821907;29;20926;-80
2021/09/24 06:37:54;;;;;;;38.08;22.00;;;;;15.40;100722.00;;;;4836509;29;20049;-80
2021/09/24 06:40:25;;;;;;;56.03;22.88;;;;;15.40;100730.00;;;;4852860;29;20045;-80
2021/09/24 06:42:55;;;;;;;41.72;22.98;;;;;15.40;100730.00;;;;4853585;29;20098;-81
2021/09/24 06:45:26;;;;;;;51.40;25.37;;;;;15.40;100712.00;;;;4854207;29;20064;-80
2021/09/24 06:47:56;;;;;;;22.40;11.20;;;;;15.40;100701.00;;;;4853698;29;20290;-80
2021/09/24 06:50:26;;;;;;;32.65;16.73;;;;;15.40;100714.00;;;;4853215;29;20422;-80
2021/09/24 06:52:56;;;;;;;40.95;18.02;;;;;15.40;100698.00;;;;4853315;29;20057;-79
2021/09/24 06:55:25;;;;;;;51.85;18.80;;;;;15.40;100712.00;;;;4837145;29;20056;-79
2021/09/24 06:57:56;;;;;;;85.47;22.83;;;;;15.40;100697.00;;;;4855477;29;20053;-79
2021/09/24 07:00:26;;;;;;;40.65;19.13;;;;;15.40;100715.00;;;;4855508;29;20049;-79
2021/09/24 07:02:55;;;;;;;34.35;17.55;;;;;15.40;100718.00;;;;4855123;29;20095;-79
2021/09/24 07:05:25;;;;;;;32.03;16.63;;;;;15.40;100713.00;;;;4855087;29;20128;-78
2021/09/24 07:07:55;;;;;;;33.80;18.50;;;;;15.40;100693.00;;;;4854983;29;20042;-79
2021/09/24 07:10:24;;;;;;;40.33;19.92;;;;;15.40;100706.00;;;;4838396;29;20058;-79
2021/09/24 07:12:54;;;;;;;62.92;23.52;;;;;15.40;100711.00;;;;4854741;29;20501;-80
2021/09/24 07:15:23;;;;;;;66.63;22.52;;;;;15.40;100732.00;;;;4854641;29;20049;-80
2021/09/24 07:17:52;;;;;;;86.00;23.95;;;;;15.40;100733.00;;;;4838050;29;20061;-80
2021/09/24 07:20:22;;;;;;;47.67;20.33;;;;;15.40;100723.00;;;;4854913;29;20060;-78
2021/09/24 07:22:52;;;;;;;65.60;21.70;;;;;15.40;100730.00;;;;4854746;29;20101;-80
2021/09/24 07:25:21;;;;;;;61.60;21.73;;;;;15.40;100728.00;;;;4838215;29;20072;-80
2021/09/24 07:27:50;;;;;;;68.43;21.48;;;;;15.40;100732.00;;;;4854233;29;20504;-80
2021/09/24 07:30:20;;;;;;;70.10;21.38;;;;;15.40;100733.00;;;;4855151;29;20098;-80
2021/09/24 07:32:49;;;;;;;45.55;20.65;;;;;15.40;100733.00;;;;4854676;29;20054;-79
2021/09/24 07:35:18;;;;;;;54.63;21.30;;;;;15.40;100743.00;;;;4853965;29;20474;-79
2021/09/24 07:37:48;;;;;;;45.35;17.95;;;;;15.40;100717.00;;;;4838663;29;20037;-80
2021/09/24 07:40:17;;;;;;;47.80;19.17;;;;;15.40;100722.00;;;;4854402;29;20102;-80
2021/09/24 07:42:47;;;;;;;36.80;17.27;;;;;15.40;100737.00;;;;4837887;29;20080;-79
2021/09/24 07:45:16;;;;;;;82.65;21.83;;;;;15.40;100728.00;;;;4836654;29;20054;-80
2021/09/24 07:47:46;;;;;;;41.92;17.00;;;;;15.40;100735.00;;;;4838681;29;20140;-78
2021/09/24 07:50:16;;;;;;;12.45;5.88;;;;;15.40;100750.00;;;;4861124;29;20069;-80
2021/09/24 07:52:45;;;;;;;44.20;20.30;;;;;15.40;100733.00;;;;4856219;29;20520;-79
2021/09/24 07:55:15;;;;;;;39.92;18.73;;;;;15.40;100727.00;;;;4855418;29;20064;-79
2021/09/24 07:57:46;;;;;;;31.65;16.35;;;;;15.40;100738.00;;;;4853101;29;20551;-79
2021/09/24 08:00:15;;;;;;;67.15;20.40;;;;;15.40;100735.00;;;;4854059;29;20049;-79
2021/09/24 08:02:45;;;;;;;55.05;20.65;;;;;15.40;100738.00;;;;4836704;29;20060;-78
2021/09/24 08:05:15;;;;;;;46.88;20.20;;;;;15.40;100737.00;;;;4853600;29;20458;-79
2021/09/24 08:07:44;;;;;;;41.92;18.85;;;;;15.40;100751.00;;;;4853172;29;20471;-80
2021/09/24 08:10:13;;;;;;;39.58;20.38;;;;;15.40;100722.00;;;;4836807;29;20049;-79
2021/09/24 08:12:43;;;;;;;45.85;20.75;;;;;15.40;100733.00;;;;4854174;29;20053;-80
2021/09/24 08:15:15;;;;;;;45.92;21.00;;;;;15.50;100757.00;;;;4854172;29;20050;-78
2021/09/24 08:17:46;;;;;;;49.05;22.42;;;;;15.50;100756.00;;;;4854497;29;20088;-80
2021/09/24 08:20:16;;;;;;;44.33;22.65;;;;;15.50;100749.00;;;;4853406;29;20727;-79
2021/09/24 08:22:45;;;;;;;44.03;21.67;;;;;15.50;100756.00;;;;4837147;29;20509;-77
2021/09/24 08:25:19;;;;;;;42.92;22.30;;;;;15.50;100757.00;;;;4853786;29;20050;-78
2021/09/24 08:27:49;;;;;;;46.92;23.08;;;;;15.50;100777.00;;;;4853671;29;20583;-78
2021/09/24 08:30:23;;;;;;;43.72;18.10;;;;;15.40;100764.00;;;;4853345;29;20046;-78
2021/09/24 08:32:54;;;;;;;37.28;18.33;;;;;15.40;100784.00;;;;4838061;29;20052;-80
2021/09/24 08:35:23;;;;;;;52.25;20.08;;;;;15.50;100788.00;;;;4853536;29;20054;-80
2021/09/24 08:37:53;;;;;;;37.40;19.48;;;;;15.50;100784.00;;;;4853285;29;20049;-79
2021/09/24 08:40:25;;;;;;;34.67;18.65;;;;;15.50;100790.00;;;;4856869;29;20065;-79
2021/09/24 08:42:55;;;;;;;31.35;16.55;;;;;15.50;100780.00;;;;4840730;29;20098;-80
2021/09/24 08:45:26;;;;;;;32.13;16.75;;;;;15.50;100803.00;;;;4825474;29;20060;-81
2021/09/24 08:48:03;;;;;;;58.33;20.48;;;;;15.50;100803.00;;;;4857529;29;20059;-80
2021/09/24 08:50:36;;;;;;;50.95;20.40;;;;;15.50;100804.00;;;;4841098;29;20054;-82
2021/09/24 08:53:08;;;;;;;60.00;20.40;;;;;15.50;100817.00;;;;4857604;29;20041;-81
2021/09/24 08:55:38;;;;;;;89.15;22.50;;;;;15.50;100832.00;;;;4841736;29;20065;-79
2021/09/24 08:58:08;;;;;;;43.55;18.45;;;;;15.50;100817.00;;;;4857044;29;20094;-81
2021/09/24 09:00:41;;;;;;;92.68;25.30;;;;;15.50;100831.00;;;;4857200;29;20529;-81
2021/09/24 09:03:18;;;;;;;22.00;12.75;;;;;15.50;100830.00;;;;4857171;29;20065;-80
2021/09/24 09:05:54;;;;;;;49.75;17.88;;;;;15.50;100833.00;;;;4857245;29;20152;-80
2021/09/24 09:08:30;;;;;;;39.88;21.30;;;;;15.50;100835.00;;;;4839738;29;20053;-81
2021/09/24 09:11:02;;;;;;;35.33;19.45;;;;;15.50;100853.00;;;;4857186;29;20041;-80
2021/09/24 09:13:59;;;;;;;45.30;19.92;;;;;15.50;100844.00;;;;4857114;29;20045;-80
2021/09/24 09:16:36;;;;;;;33.88;19.05;;;;;15.50;100832.00;;;;4855175;29;20140;-80
2021/09/24 09:19:17;;;;;;;50.75;21.77;;;;;15.60;100865.00;;;;4857767;29;20133;-81
2021/09/24 09:21:47;;;;;;;58.05;22.60;;;;;15.60;100867.00;;;;4856843;29;20045;-81
2021/09/24 09:24:23;;;;;;;48.05;23.98;;;;;15.60;100867.00;;;;4856888;29;20045;-81
2021/09/24 09:27:19;;;;;;;47.92;24.08;;;;;15.60;100876.00;;;;4856667;29;20056;-80
2021/09/24 09:30:11;;;;;;;60.95;25.92;;;;;15.60;100877.00;;;;4856812;29;20402;-79
2021/09/24 09:32:45;;;;;;;56.15;23.98;;;;;15.60;100864.00;;;;4856436;29;20046;-80
2021/09/24 09:35:14;;;;;;;70.72;27.45;;;;;15.50;100884.00;;;;4856865;29;20041;-80
2021/09/24 09:37:44;;;;;;;61.92;24.83;;;;;15.60;100886.00;;;;4855768;29;20050;-80
2021/09/24 09:40:17;;;;;;;53.45;22.95;;;;;15.50;100883.00;;;;4856499;29;20045;-81
2021/09/24 09:42:47;;;;;;;46.58;22.67;;;;;15.60;100896.00;;;;4857016;29;20042;-80
2021/09/24 09:45:18;;;;;;;56.03;22.75;;;;;15.60;100913.00;;;;4855948;29;20090;-80
2021/09/24 09:47:49;;;;;;;54.17;25.52;;;;;15.60;100911.00;;;;4856848;29;20069;-79
2021/09/24 09:50:26;;;;;;;59.28;27.13;;;;;15.70;100916.00;;;;4855349;29;20557;-80
2021/09/24 09:53:01;;;;;;;58.03;26.58;;;;;15.70;100924.00;;;;4840097;29;20553;-80
2021/09/24 09:55:34;;;;;;;51.97;24.42;;;;;15.70;100913.00;;;;4856404;29;20137;-80
2021/09/24 09:58:08;;;;;;;54.42;22.10;;;;;15.70;100925.00;;;;4848802;29;20045;-80
2021/09/24 10:01:11;;;;;;;23.77;12.88;;;;;15.80;100945.00;;;;4854489;29;20046;-79
2021/09/24 10:03:51;;;;;;;75.65;31.73;;;;;15.70;100937.00;;;;4854060;29;20061;-80
2021/09/24 10:06:23;;;;;;;74.45;33.95;;;;;15.70;100937.00;;;;4839280;29;20102;-80
2021/09/24 10:08:55;;;;;;;68.53;35.97;;;;;15.80;100951.00;;;;4855917;29;20045;-79
2021/09/24 10:11:37;;;;;;;69.47;34.20;;;;;15.80;100957.00;;;;4839660;29;20049;-79
2021/09/24 10:14:13;;;;;;;72.47;33.65;;;;;15.90;100976.00;;;;4856116;29;20107;-79
2021/09/24 10:16:48;;;;;;;68.22;35.95;;;;;15.80;100966.00;;;;4855171;29;20049;-80
2021/09/24 10:19:18;;;;;;;70.10;32.38;;;;;15.80;100969.00;;;;4855638;29;20132;-79
2021/09/24 10:21:54;;;;;;;62.42;32.03;;;;;15.80;100966.00;;;;4839661;29;20058;-80
2021/09/24 10:24:24;;;;;;;56.70;31.08;;;;;15.80;100966.00;;;;4856127;29;20045;-81
2021/09/24 10:27:00;;;;;;;66.72;31.63;;;;;15.80;100974.00;;;;4855965;29;20121;-80
2021/09/24 10:29:32;;;;;;;67.53;32.70;;;;;15.90;100996.00;;;;4854821;29;20529;-80
2021/09/24 10:32:16;;;;;;;61.35;29.55;;;;;15.90;100976.00;;;;4856037;29;20049;-81
2021/09/24 10:35:10;;;;;;;54.00;26.52;;;;;15.90;100978.00;;;;4856015;29;20049;-80
2021/09/24 10:37:45;;;;;;;59.83;28.77;;;;;15.90;100987.00;;;;4855647;29;20417;-81
2021/09/24 10:40:22;;;;;;;64.38;33.63;;;;;16.00;100989.00;;;;4858103;29;20049;-79
2021/09/24 10:42:57;;;;;;;52.75;28.20;;;;;16.00;100994.00;;;;4857600;29;20057;-80
2021/09/24 10:45:32;;;;;;;55.95;25.65;;;;;15.90;101009.00;;;;4856241;29;20446;-80
2021/09/24 10:48:15;;;;;;;59.65;28.25;;;;;15.90;101009.00;;;;4849074;29;20187;-81
2021/09/24 10:50:47;;;;;;;50.20;24.42;;;;;16.00;101021.00;;;;4856283;29;20152;-80
2021/09/24 10:53:24;;;;;;;47.47;27.15;;;;;16.00;101012.00;;;;4856054;29;20057;-81
2021/09/24 10:55:54;;;;;;;57.50;25.55;;;;;16.00;101030.00;;;;4854761;29;20479;-82
2021/09/24 10:58:32;;;;;;;33.80;15.98;;;;;16.00;101046.00;;;;4855367;29;20049;-80
2021/09/24 11:01:16;;;;;;;9.40;4.93;;;;;16.00;101023.00;;;;4846841;29;20046;-81
2021/09/24 11:03:53;;;;;;;46.40;23.77;;;;;16.10;101041.00;;;;4854248;29;20057;-81
2021/09/24 11:06:40;;;;;;;57.42;25.65;;;;;16.30;101035.00;;;;4855739;29;20046;-80
2021/09/24 11:09:14;;;;;;;35.42;16.77;;;;;16.30;101030.00;;;;4855099;29;20497;-81
2021/09/24 11:11:48;;;;;;;42.70;18.20;;;;;16.50;101029.00;;;;4855210;29;20074;-81
2021/09/24 11:14:38;;;;;;;36.08;16.00;;;;;16.40;101050.00;;;;4855624;29;20075;-81
2021/09/24 11:17:11;;;;;;;36.83;15.70;;;;;16.40;101054.00;;;;4855435;29;20072;-80
2021/09/24 11:19:50;;;;;;;38.53;16.17;;;;;16.50;101051.00;;;;4854471;29;20290;-81
2021/09/24 11:22:39;;;;;;;27.63;12.15;;;;;16.70;101036.00;;;;4838074;29;20205;-80
2021/09/24 11:25:13;;;;;;;1.88;1.33;;;;;17.30;101035.00;;;;4855013;29;20092;-80
2021/09/24 11:27:46;;;;;;;14.88;7.22;;;;;17.00;101029.00;;;;4855240;29;20049;-80
2021/09/24 11:30:24;;;;;;;28.75;13.65;;;;;16.90;101041.00;;;;4854916;29;20049;-80
2021/09/24 11:32:56;;;;;;;44.28;14.02;;;;;17.00;101049.00;;;;4854961;29;20050;-80
2021/09/24 11:35:45;;;;;;;29.67;12.55;;;;;17.30;101027.00;;;;4854737;29;20070;-80
2021/09/24 11:38:20;;;;;;;19.40;10.88;;;;;18.30;100998.00;;;;4854898;29;20046;-80
2021/09/24 11:40:57;;;;;;;17.13;6.80;;;;;19.90;100833.00;;;;4838632;29;20543;-81
2021/09/24 11:43:39;;;;;;;15.93;7.68;;;;;18.30;101035.00;;;;4854518;29;20128;-82
2021/09/24 11:46:25;;;;;;;28.77;10.02;;;;;18.20;101034.00;;;;4854396;29;20477;-79
2021/09/24 11:48:55;;;;;;;18.35;10.25;;;;;17.50;101047.00;;;;4854278;29;20581;-81
2021/09/24 11:51:26;;;;;;;15.00;8.52;;;;;17.40;101052.00;;;;4854158;29;20514;-79
2021/09/24 11:53:58;;;;;;;28.92;10.10;;;;;17.40;101042.00;;;;4854581;29;20078;-79
2021/09/24 11:56:38;;;;;;;29.20;12.40;;;;;17.50;101050.00;;;;4837983;29;20064;-80
2021/09/24 11:59:10;;;;;;;24.33;12.10;;;;;17.30;101027.00;;;;4855121;29;20049;-78
2021/09/24 12:01:44;;;;;;;25.23;13.20;;;;;17.20;101015.00;;;;4856236;29;20076;-79
2021/09/24 12:04:14;;;;;;;30.27;25.58;;;;;17.40;101030.00;;;;4855319;29;20140;-80
2021/09/24 12:06:44;;;;;;;20.60;15.38;;;;;17.60;101037.00;;;;4854809;29;20462;-80
2021/09/24 12:09:17;;;;;;;23.02;10.90;;;;;17.90;101038.00;;;;4838016;29;20152;-78
2021/09/24 12:11:51;;;;;;;22.63;10.93;;;;;18.00;101039.00;;;;4854456;29;20049;-79